Airfield :
LOGIN :

Register | Disclaimer

   EN    FR    IT 

 










Legend :    VFR   Marginal VFR   IFR   Intensive IFR   Very Intensive IFR
Visi :
Ceiling :
>= 8 km
>= 3000ft
5 to 8 km
1000 to 3000 ft
1500m to 5 km
500 to 1000 ft
800 to 1500m
200 to 500 ft
< 800m
< 200 ft
Symbols :   Thunderstorms  Fog  Heavy snow  Heavy precipitations  Wind > 20 kt
SIGMETs :     Misc.  Thunderstorms  Icing  Turbulence  Mountain Waves  Volcanic Ashes






- Airport Elevation : 1411 ft
- IATA code : GVA


LSGG - Genève Cointrin

CURRENT METAR :
  • 200620Z VRB01KT 9999 OVC025 04/01 Q1015 NOSIG

EXPIRED METARs :
  • 200550Z VRB01KT 9999 OVC020 04/00 Q1015 NOSIG
  • 200520Z VRB01KT 9999 OVC020 04/00 Q1015 NOSIG
  • 200450Z 01002KT 9999 OVC020 04/M00 Q1015 NOSIG
  • 200420Z AUTO VRB02KT 9999 BKN024 04/00 Q1015 NOSIG
  • 200350Z AUTO VRB02KT 9999 BKN025 04/M00 Q1015 NOSIG

TAF TAF LSGG
Valid from the 20 at 06:00 until the 21 at 12:00 UTC


200525Z 2006/2112 01003KT 9999 BKN025 TX07/2014Z TN01/2006Z TN02/2106Z
BECMG 2011/2013 SCT014
BECMG 2018/2021 BKN010
ATIS : +41 22 417 40 81



MET'MAP, your aeronautical weather chart ! - Copyright ORBIFLY December 2007 - Disclaimer

ORBIFLY MET'MAP TEAM :

Programming & Development : Alexandra Zaïnal
Concept & Development : Baudouin d'Aumeries
Co-Development & Prog : Marc-Olivier Méhu
Technical & hardware support : Manuel Goepfert

Contact : metmap@orbifly.com




SOURCES & CREDITS :

   NOAA